Time;durP1;ratioP1;P1;durP2;ratioP2;P2;SDS_P1;SDS_P2;PMS_P1;PMS_P2;Temp;Humidity;BMP_temperature;BMP_pressure;BME280_temperature;BME280_humidity;BME280_pressure;Samples;Min_cycle;Max_cycle;Signal;HPM_P1;HPM_P2
2023/09/12 00:00:16;;;;;;;11.68;7.57;;;22.30;99.90;;;;;;5114898;28;20316;-60
2023/09/12 00:02:41;;;;;;;10.93;6.70;;;22.20;99.90;;;;;;5114918;28;20023;-62
2023/09/12 00:05:07;;;;;;;;;;;22.20;99.90;;;;;;5116000;28;20035;-62
2023/09/12 00:07:33;;;;;;;11.73;7.20;;;22.20;99.90;;;;;;5114554;28;19904;-62
2023/09/12 00:09:58;;;;;;;;;;;22.10;99.90;;;;;;5115132;28;20470;-61
2023/09/12 00:12:27;;;;;;;13.50;7.05;;;22.00;99.90;;;;;;5115027;28;19970;-62
2023/09/12 00:14:53;;;;;;;13.82;6.90;;;22.00;99.90;;;;;;5115484;28;20381;-62
2023/09/12 00:17:19;;;;;;;12.35;6.63;;;22.00;99.90;;;;;;5114878;28;20020;-62
2023/09/12 00:19:44;;;;;;;;;;;22.00;99.90;;;;;;5115059;28;20038;-61
2023/09/12 00:22:10;;;;;;;11.00;7.03;;;22.00;99.90;;;;;;5114205;28;19933;-62
2023/09/12 00:24:36;;;;;;;14.95;7.80;;;21.90;99.90;;;;;;5114858;28;20023;-60
2023/09/12 00:27:04;;;;;;;11.23;7.85;;;21.80;99.90;;;;;;5114666;28;20019;-62
2023/09/12 00:29:30;;;;;;;12.48;8.38;;;21.70;99.90;;;;;;5114452;28;20465;-62
2023/09/12 00:31:55;;;;;;;11.85;7.55;;;21.70;99.90;;;;;;5114514;28;20069;-62
2023/09/12 00:34:21;;;;;;;13.98;7.18;;;21.70;99.90;;;;;;5114613;28;20500;-62
2023/09/12 00:36:46;;;;;;;13.00;7.30;;;21.60;99.90;;;;;;5113257;28;20035;-62
2023/09/12 00:39:12;;;;;;;14.90;7.78;;;21.60;99.90;;;;;;5112730;28;20023;-61
2023/09/12 00:41:37;;;;;;;14.40;7.97;;;21.60;99.90;;;;;;5114817;28;20389;-60
2023/09/12 00:44:03;;;;;;;11.80;7.32;;;21.60;99.90;;;;;;5114346;28;20110;-59
2023/09/12 00:46:29;;;;;;;11.90;7.43;;;21.50;99.90;;;;;;5113186;28;20031;-60
2023/09/12 00:48:57;;;;;;;;;;;21.50;99.90;;;;;;5113314;28;20460;-58
2023/09/12 00:51:25;;;;;;;12.18;8.13;;;21.40;99.90;;;;;;5114046;28;20029;-59
2023/09/12 00:53:50;;;;;;;12.27;7.85;;;21.40;99.90;;;;;;5113949;28;20409;-60
2023/09/12 00:56:16;;;;;;;12.32;7.82;;;21.50;99.90;;;;;;5114738;28;20023;-60
2023/09/12 00:58:42;;;;;;;12.13;7.95;;;21.40;99.90;;;;;;5114786;28;20027;-60
2023/09/12 01:01:07;;;;;;;;;;;21.40;99.90;;;;;;5115641;28;20542;-60
2023/09/12 01:03:34;;;;;;;14.93;8.05;;;21.40;99.90;;;;;;5113987;28;19926;-60
2023/09/12 01:06:01;;;;;;;13.93;8.15;;;21.40;99.90;;;;;;5113991;28;20098;-60
2023/09/12 01:08:26;;;;;;;11.07;7.80;;;21.40;99.90;;;;;;5113717;28;20030;-61
2023/09/12 01:10:55;;;;;;;12.30;8.25;;;21.30;99.90;;;;;;5113893;28;20019;-60
2023/09/12 01:13:21;;;;;;;10.52;7.90;;;21.40;99.90;;;;;;5113882;28;20038;-61
2023/09/12 01:15:46;;;;;;;12.13;8.77;;;21.30;99.90;;;;;;5113945;28;20032;-61
2023/09/12 01:18:12;;;;;;;11.55;8.15;;;21.30;99.90;;;;;;5114199;28;20413;-61
2023/09/12 01:20:40;;;;;;;17.30;8.32;;;21.30;99.90;;;;;;5113960;28;20442;-61
2023/09/12 01:23:15;;;;;;;14.15;8.90;;;21.30;99.90;;;;;;5113616;28;20043;-61
2023/09/12 01:26:27;;;;;;;12.27;7.70;;;21.20;99.90;;;;;;5112307;28;20020;-60
2023/09/12 01:28:55;;;;;;;10.32;7.20;;;21.10;99.90;;;;;;5110499;28;20028;-61
2023/09/12 01:31:21;;;;;;;13.55;7.85;;;21.20;99.90;;;;;;5113884;28;20019;-61
2023/09/12 01:33:46;;;;;;;11.38;7.55;;;21.20;99.90;;;;;;5114105;28;20023;-61
2023/09/12 01:36:12;;;;;;;11.57;8.30;;;21.10;99.90;;;;;;5113504;28;20024;-60
2023/09/12 01:38:38;;;;;;;12.57;7.93;;;21.10;99.90;;;;;;5113336;28;20034;-61
2023/09/12 01:41:04;;;;;;;10.68;7.63;;;21.10;99.90;;;;;;5113443;28;20386;-61
2023/09/12 01:43:31;;;;;;;15.60;8.25;;;21.00;99.90;;;;;;5113544;28;20034;-61
2023/09/12 01:45:59;;;;;;;12.18;7.85;;;21.00;99.90;;;;;;5113863;28;20038;-60
2023/09/12 01:48:33;;;;;;;12.52;8.25;;;21.00;99.90;;;;;;5113475;28;20031;-61
2023/09/12 01:50:59;;;;;;;12.85;7.93;;;21.10;99.90;;;;;;5115019;28;20027;-61
2023/09/12 01:53:25;;;;;;;;;;;21.10;99.90;;;;;;5117825;28;20042;-61
2023/09/12 01:55:51;;;;;;;15.95;7.30;;;21.10;99.90;;;;;;5116150;28;20353;-61
2023/09/12 01:58:16;;;;;;;13.75;7.93;;;21.00;99.90;;;;;;5117923;28;20031;-61
2023/09/12 02:00:42;;;;;;;12.48;8.43;;;21.10;99.90;;;;;;5117797;28;20034;-61
2023/09/12 02:03:08;;;;;;;13.05;7.95;;;21.10;99.90;;;;;;5117457;28;20106;-61
2023/09/12 02:05:33;;;;;;;14.80;8.20;;;21.10;99.90;;;;;;5117603;28;20027;-60
2023/09/12 02:08:01;;;;;;;12.52;8.63;;;21.30;99.90;;;;;;5117374;28;20027;-61
2023/09/12 02:10:27;;;;;;;12.77;8.10;;;21.40;99.90;;;;;;5117333;28;20024;-59
2023/09/12 02:12:52;;;;;;;10.65;7.85;;;21.50;99.90;;;;;;5116284;28;20020;-61
2023/09/12 02:15:18;;;;;;;14.15;8.07;;;21.30;99.90;;;;;;5116543;28;20023;-61
2023/09/12 02:17:43;;;;;;;16.70;8.93;;;21.20;99.90;;;;;;5118329;28;20019;-60
2023/09/12 02:20:10;;;;;;;13.38;8.95;;;21.10;99.90;;;;;;5117383;28;20489;-57
2023/09/12 02:22:36;;;;;;;13.73;9.25;;;21.20;99.90;;;;;;5117244;28;20032;-60
2023/09/12 02:25:04;;;;;;;14.23;9.43;;;21.10;99.90;;;;;;5117796;28;20475;-59
2023/09/12 02:27:30;;;;;;;13.82;9.35;;;21.10;99.90;;;;;;5117022;28;20044;-60
2023/09/12 02:29:56;;;;;;;15.65;9.27;;;21.20;99.90;;;;;;5117336;28;20477;-60
2023/09/12 02:32:21;;;;;;;16.60;9.38;;;21.30;99.90;;;;;;5117481;28;20107;-60
2023/09/12 02:34:47;;;;;;;13.23;8.88;;;21.40;99.90;;;;;;5115878;28;20032;-60
2023/09/12 02:37:12;;;;;;;15.05;9.48;;;21.50;99.90;;;;;;5117292;28;20027;-60
2023/09/12 02:39:38;;;;;;;13.55;8.45;;;21.40;99.90;;;;;;5116735;28;20032;-61
2023/09/12 02:42:03;;;;;;;13.95;9.15;;;21.20;99.90;;;;;;5116957;28;20031;-61
2023/09/12 02:44:29;;;;;;;14.98;9.95;;;21.10;99.90;;;;;;5115570;28;20512;-61
2023/09/12 02:46:54;;;;;;;16.55;9.60;;;21.20;99.90;;;;;;5116566;28;20432;-61
2023/09/12 02:49:20;;;;;;;13.38;9.00;;;21.30;99.90;;;;;;5116304;28;20027;-62
2023/09/12 02:51:45;;;;;;;11.35;8.68;;;21.10;99.90;;;;;;5116381;28;20030;-61
2023/09/12 02:54:11;;;;;;;16.15;8.05;;;20.90;99.90;;;;;;5114773;28;20019;-61
2023/09/12 02:56:37;;;;;;;12.45;8.20;;;21.10;99.90;;;;;;5116213;28;20378;-61
2023/09/12 02:59:02;;;;;;;12.73;8.75;;;20.90;99.90;;;;;;5116649;28;20032;-59
2023/09/12 03:01:28;;;;;;;14.10;8.73;;;21.00;99.90;;;;;;5116086;28;20102;-61
2023/09/12 03:03:54;;;;;;;12.35;8.35;;;21.00;99.90;;;;;;5115965;28;20035;-61
2023/09/12 03:06:20;;;;;;;;;;;20.70;99.90;;;;;;5115360;28;20023;-61
2023/09/12 03:08:47;;;;;;;12.75;8.23;;;20.70;99.90;;;;;;5115756;28;19910;-61
2023/09/12 03:11:12;;;;;;;14.30;8.10;;;20.60;99.90;;;;;;5115940;28;20026;-61
2023/09/12 03:13:40;;;;;;;11.80;8.30;;;20.50;99.90;;;;;;5115920;28;20031;-58
2023/09/12 03:16:10;;;;;;;16.38;8.80;;;20.70;99.90;;;;;;5116005;27;20044;-61
2023/09/12 03:18:35;;;;;;;14.70;8.63;;;20.70;99.90;;;;;;5114454;28;20023;-61
2023/09/12 03:21:01;;;;;;;9.85;8.38;;;20.60;99.90;;;;;;5116020;28;20398;-61
2023/09/12 03:23:27;;;;;;;11.70;8.73;;;20.60;99.90;;;;;;5115314;28;20050;-60
2023/09/12 03:25:52;;;;;;;14.63;8.70;;;20.60;99.90;;;;;;5115855;28;20020;-60
2023/09/12 03:28:18;;;;;;;13.38;7.75;;;20.60;99.90;;;;;;5116305;28;20034;-61
2023/09/12 03:30:43;;;;;;;13.73;8.45;;;20.60;99.90;;;;;;5116065;28;20027;-61
2023/09/12 03:33:09;;;;;;;13.02;8.32;;;20.70;99.90;;;;;;5116002;28;20081;-60
2023/09/12 03:35:35;;;;;;;13.20;10.93;;;20.80;99.90;;;;;;5116434;28;20107;-61
2023/09/12 03:38:01;;;;;;;14.77;8.20;;;20.80;99.90;;;;;;5116658;28;20416;-61
2023/09/12 03:40:30;;;;;;;12.20;8.60;;;20.80;99.90;;;;;;5116848;28;20032;-60
2023/09/12 03:42:56;;;;;;;11.55;7.68;;;21.00;99.90;;;;;;5115942;28;20122;-60
2023/09/12 03:45:22;;;;;;;12.75;8.55;;;21.30;99.90;;;;;;5116313;28;20063;-60
2023/09/12 03:47:48;;;;;;;11.77;8.18;;;21.40;99.90;;;;;;5115699;28;20115;-61
2023/09/12 03:50:13;;;;;;;17.67;8.77;;;21.40;99.90;;;;;;5115579;28;20426;-60
2023/09/12 03:52:39;;;;;;;12.13;8.20;;;21.40;99.90;;;;;;5114024;28;20371;-61
2023/09/12 03:55:05;;;;;;;14.40;8.35;;;21.30;99.90;;;;;;5114968;28;20363;-61
2023/09/12 03:57:31;;;;;;;15.52;8.80;;;21.30;99.90;;;;;;5115276;28;20043;-61
2023/09/12 03:59:57;;;;;;;11.95;8.43;;;21.20;99.90;;;;;;5114826;28;20485;-62
2023/09/12 04:02:22;;;;;;;17.23;9.05;;;21.00;99.90;;;;;;5116092;28;20144;-61
2023/09/12 04:04:48;;;;;;;15.95;9.30;;;21.10;99.90;;;;;;5115789;28;20081;-61
2023/09/12 04:07:13;;;;;;;14.07;9.02;;;21.00;99.90;;;;;;5113973;28;20024;-61
2023/09/12 04:09:39;;;;;;;14.95;9.15;;;21.00;99.90;;;;;;5114795;28;20051;-60
2023/09/12 04:12:06;;;;;;;17.85;9.57;;;20.80;99.90;;;;;;5114864;28;20019;-61
2023/09/12 04:14:32;;;;;;;12.98;8.32;;;20.80;99.90;;;;;;5114383;28;20412;-62
2023/09/12 04:16:57;;;;;;;10.40;8.38;;;20.70;99.90;;;;;;5113327;28;20027;-62
2023/09/12 04:19:23;;;;;;;12.55;8.80;;;20.80;99.90;;;;;;5114968;28;20046;-60
2023/09/12 04:21:48;;;;;;;16.27;8.48;;;21.00;99.90;;;;;;5114421;28;20034;-61
2023/09/12 04:24:15;;;;;;;16.30;9.23;;;21.10;99.90;;;;;;5114654;28;20485;-60
2023/09/12 04:26:41;;;;;;;13.23;8.82;;;21.20;99.90;;;;;;5114911;28;20034;-61
2023/09/12 04:29:06;;;;;;;18.65;9.70;;;20.90;99.90;;;;;;5115233;28;20660;-60
2023/09/12 04:31:32;;;;;;;16.85;8.90;;;20.80;99.90;;;;;;5114350;28;20397;-62
2023/09/12 04:33:58;;;;;;;15.52;9.82;;;20.80;99.90;;;;;;5109382;28;20023;-61
2023/09/12 04:36:23;;;;;;;13.77;10.40;;;20.70;99.90;;;;;;5102941;28;20099;-63
2023/09/12 04:38:49;;;;;;;17.55;10.52;;;20.60;99.90;;;;;;5111642;28;20157;-61
2023/09/12 04:41:16;;;;;;;16.90;11.15;;;20.50;99.90;;;;;;5113207;28;20023;-61
2023/09/12 04:43:45;;;;;;;15.73;10.88;;;20.50;99.90;;;;;;5108792;28;20404;-61
2023/09/12 04:46:11;;;;;;;16.10;11.23;;;20.80;99.90;;;;;;5106622;28;20028;-61
2023/09/12 04:48:37;;;;;;;17.05;11.05;;;20.80;99.90;;;;;;5109501;28;20035;-60
2023/09/12 04:51:03;;;;;;;;;;;20.70;99.90;;;;;;5114231;28;20024;-61
2023/09/12 04:53:34;;;;;;;20.08;12.35;;;20.60;99.90;;;;;;5113515;28;19904;-61
2023/09/12 04:56:01;;;;;;;16.10;10.88;;;20.70;99.90;;;;;;5113948;28;20422;-61
2023/09/12 04:58:26;;;;;;;18.00;11.10;;;20.80;99.90;;;;;;5111920;28;20019;-61
2023/09/12 05:00:52;;;;;;;16.05;11.65;;;20.90;99.90;;;;;;5113901;28;20440;-62
2023/09/12 05:03:17;;;;;;;19.25;11.40;;;20.80;99.90;;;;;;5113698;28;20074;-61
2023/09/12 05:05:46;;;;;;;16.85;11.18;;;20.80;99.90;;;;;;5113208;28;20028;-61
2023/09/12 05:08:12;;;;;;;16.95;11.30;;;20.60;99.90;;;;;;5103691;28;20425;-61
2023/09/12 05:10:38;;;;;;;20.35;11.40;;;20.60;99.90;;;;;;5100033;28;20058;-61
2023/09/12 05:13:04;;;;;;;19.90;11.45;;;20.80;99.90;;;;;;5105102;28;20020;-62
2023/09/12 05:15:30;;;;;;;16.13;10.75;;;20.80;99.90;;;;;;5102704;28;20085;-62
2023/09/12 05:17:55;;;;;;;23.63;11.60;;;20.70;99.90;;;;;;5103920;28;20127;-60
2023/09/12 05:20:21;;;;;;;17.17;10.95;;;20.70;99.90;;;;;;5093172;28;20024;-60
2023/09/12 05:22:46;;;;;;;18.58;11.10;;;20.80;99.90;;;;;;5101636;28;20459;-61
2023/09/12 05:25:12;;;;;;;18.77;10.88;;;20.70;99.90;;;;;;5113123;28;20024;-63
2023/09/12 05:27:37;;;;;;;15.10;10.65;;;20.60;99.90;;;;;;5117571;28;20028;-61
2023/09/12 05:30:04;;;;;;;13.68;11.07;;;20.60;99.90;;;;;;5118252;28;20446;-61
2023/09/12 05:32:29;;;;;;;;;;;20.50;99.90;;;;;;5118125;28;20055;-61
2023/09/12 05:34:55;;;;;;;20.75;9.68;;;20.50;99.90;;;;;;5118112;28;20316;-60
2023/09/12 05:37:20;;;;;;;17.77;10.90;;;20.50;99.90;;;;;;5117582;28;20038;-59
2023/09/12 05:39:46;;;;;;;15.10;10.82;;;20.60;99.90;;;;;;5117258;28;20066;-61
2023/09/12 05:42:12;;;;;;;14.82;9.93;;;20.70;99.90;;;;;;5117984;28;20073;-61
2023/09/12 05:44:37;;;;;;;17.08;10.10;;;20.60;99.90;;;;;;5117251;28;20042;-61
2023/09/12 05:47:03;;;;;;;21.13;11.07;;;20.60;99.90;;;;;;5117292;28;20030;-61
2023/09/12 05:49:29;;;;;;;16.80;10.13;;;20.60;99.90;;;;;;5117428;28;20094;-61
2023/09/12 05:51:54;;;;;;;18.35;9.88;;;20.60;99.90;;;;;;5117170;28;20035;-61
2023/09/12 05:54:20;;;;;;;15.80;10.52;;;20.60;99.90;;;;;;5115041;28;20038;-61
2023/09/12 05:56:47;;;;;;;14.25;10.20;;;20.60;99.90;;;;;;5117435;28;20043;-60
2023/09/12 05:59:13;;;;;;;16.98;10.80;;;20.70;99.90;;;;;;5115715;28;20504;-60
2023/09/12 06:01:39;;;;;;;15.07;10.15;;;20.60;99.90;;;;;;5115445;28;20024;-61
2023/09/12 06:04:04;;;;;;;13.77;10.52;;;20.50;99.90;;;;;;5117334;28;20105;-60
2023/09/12 06:06:30;;;;;;;16.25;11.07;;;20.50;99.90;;;;;;5117020;28;20500;-59
2023/09/12 06:08:56;;;;;;;16.58;9.98;;;20.50;99.90;;;;;;5116895;28;20073;-59
2023/09/12 06:11:22;;;;;;;;;;;20.40;99.90;;;;;;5118086;28;20461;-60
2023/09/12 06:13:47;;;;;;;18.70;10.77;;;20.40;99.90;;;;;;5117800;28;19908;-59
2023/09/12 06:16:13;;;;;;;19.42;10.68;;;20.40;99.90;;;;;;5116836;28;20390;-60
2023/09/12 06:18:38;;;;;;;18.50;11.43;;;20.40;99.90;;;;;;5117196;28;20031;-59
2023/09/12 06:21:06;;;;;;;19.60;11.68;;;20.50;99.90;;;;;;5117980;28;20038;-59
2023/09/12 06:23:31;;;;;;;16.38;11.50;;;20.50;99.90;;;;;;5116525;28;20031;-58
2023/09/12 06:25:57;;;;;;;19.02;11.15;;;20.60;99.90;;;;;;5116795;28;20084;-60
2023/09/12 06:28:27;;;;;;;17.52;11.23;;;20.70;99.90;;;;;;5116899;28;20049;-60
2023/09/12 06:30:53;;;;;;;17.27;11.27;;;20.80;99.90;;;;;;5116768;28;20026;-60
2023/09/12 06:33:18;;;;;;;17.77;11.75;;;20.70;99.90;;;;;;5116695;28;20019;-59
2023/09/12 06:35:47;;;;;;;14.73;12.02;;;20.70;99.90;;;;;;5116804;28;20154;-60
2023/09/12 06:38:13;;;;;;;16.30;12.00;;;20.70;99.90;;;;;;5115795;28;20036;-60
2023/09/12 06:40:38;;;;;;;18.48;12.32;;;20.80;99.90;;;;;;5116460;28;20140;-60
2023/09/12 06:43:04;;;;;;;16.10;12.02;;;20.90;99.90;;;;;;5114845;28;20119;-60
2023/09/12 06:45:32;;;;;;;17.50;11.75;;;20.90;99.90;;;;;;5115579;28;20034;-61
2023/09/12 06:47:58;;;;;;;19.35;11.25;;;21.00;99.90;;;;;;5116418;28;20526;-61
2023/09/12 06:50:23;;;;;;;19.52;11.55;;;21.10;99.90;;;;;;5116623;28;20036;-61
2023/09/12 06:52:49;;;;;;;14.18;10.27;;;21.20;99.90;;;;;;5116389;28;20049;-61
2023/09/12 06:55:14;;;;;;;19.10;10.75;;;21.40;99.90;;;;;;5115493;28;20439;-62
2023/09/12 06:57:40;;;;;;;18.45;10.95;;;21.40;99.90;;;;;;5116315;28;20063;-62
2023/09/12 07:00:07;;;;;;;18.15;10.70;;;21.50;99.90;;;;;;5116345;28;20016;-61
2023/09/12 07:02:33;;;;;;;15.73;10.60;;;21.60;99.90;;;;;;5116809;28;20023;-61
2023/09/12 07:04:58;;;;;;;18.30;10.00;;;21.80;99.90;;;;;;5116794;28;20028;-61
2023/09/12 07:07:24;;;;;;;17.48;10.35;;;21.90;99.90;;;;;;5118046;28;20454;-63
2023/09/12 07:09:49;;;;;;;16.45;10.02;;;21.90;99.90;;;;;;5116250;28;20023;-60
2023/09/12 07:12:15;;;;;;;19.23;10.80;;;21.80;99.90;;;;;;5116484;28;20031;-60
2023/09/12 07:14:40;;;;;;;20.85;11.18;;;21.80;99.90;;;;;;5116650;28;20020;-63
2023/09/12 07:17:08;;;;;;;16.30;10.93;;;21.90;99.90;;;;;;5116407;28;20489;-62
2023/09/12 07:19:33;;;;;;;19.25;10.05;;;22.00;99.90;;;;;;5116566;28;20075;-62
2023/09/12 07:21:59;;;;;;;19.55;10.13;;;22.10;99.90;;;;;;5117057;28;20036;-61
2023/09/12 07:24:26;;;;;;;22.58;11.02;;;22.00;99.90;;;;;;5116880;28;20039;-61
2023/09/12 07:26:52;;;;;;;20.00;10.60;;;22.10;99.90;;;;;;5118466;28;20050;-62
2023/09/12 07:29:17;;;;;;;15.02;10.45;;;22.20;99.90;;;;;;5120643;28;20102;-61
2023/09/12 07:31:43;;;;;;;;;;;22.30;99.90;;;;;;5121394;28;20036;-62
2023/09/12 07:34:09;;;;;;;14.88;10.25;;;22.30;99.90;;;;;;5118167;28;19911;-61
2023/09/12 07:36:35;;;;;;;17.88;9.82;;;22.40;99.90;;;;;;5117192;28;20034;-62
2023/09/12 07:39:00;;;;;;;20.00;13.57;;;22.50;99.90;;;;;;5116039;28;20386;-63
2023/09/12 07:41:26;;;;;;;16.60;9.98;;;22.60;99.90;;;;;;5115922;28;20028;-62
2023/09/12 07:43:51;;;;;;;12.52;9.57;;;22.60;99.90;;;;;;5115661;28;20477;-63
2023/09/12 07:46:17;;;;;;;15.48;9.07;;;22.70;99.90;;;;;;5115371;28;20039;-62
2023/09/12 07:48:43;;;;;;;;;;;22.80;99.90;;;;;;5114904;28;20016;-61
2023/09/12 07:51:17;;;;;;;13.05;9.38;;;22.90;99.90;;;;;;5115121;28;19904;-62
2023/09/12 07:53:43;;;;;;;14.63;10.27;;;23.00;99.90;;;;;;5114900;28;20024;-62
2023/09/12 07:56:12;;;;;;;14.73;9.60;;;23.00;99.90;;;;;;5115166;28;20385;-58
2023/09/12 07:58:38;;;;;;;18.35;10.23;;;23.00;99.90;;;;;;5115370;28;20035;-63
2023/09/12 08:01:08;;;;;;;16.73;9.63;;;23.10;99.90;;;;;;5119136;28;20030;-61
2023/09/12 08:03:35;;;;;;;14.68;9.70;;;23.20;99.90;;;;;;5121772;28;20027;-61
2023/09/12 08:06:00;;;;;;;14.90;9.27;;;23.30;99.90;;;;;;5119214;28;20048;-63
2023/09/12 08:08:26;;;;;;;12.32;8.75;;;23.30;99.90;;;;;;5119439;28;20424;-60
2023/09/12 08:10:51;;;;;;;16.67;9.32;;;23.50;99.90;;;;;;5120878;28;20036;-63
2023/09/12 08:13:17;;;;;;;;;;;23.50;99.90;;;;;;5120903;28;20129;-62
2023/09/12 08:15:42;;;;;;;18.55;9.18;;;23.60;99.90;;;;;;5116099;28;19904;-61
2023/09/12 08:18:08;;;;;;;;;;;23.70;99.90;;;;;;5115530;28;20041;-61
2023/09/12 08:20:33;;;;;;;15.00;8.95;;;23.80;99.90;;;;;;5115115;28;19956;-62
2023/09/12 08:22:59;;;;;;;;;;;23.90;99.90;;;;;;5115158;28;20505;-61
2023/09/12 08:25:24;;;;;;;23.80;16.33;;;24.00;99.90;;;;;;5115550;28;19915;-61
2023/09/12 08:27:50;;;;;;;;;;;24.30;99.90;;;;;;5116440;28;20118;-61
2023/09/12 08:30:16;;;;;;;11.48;8.75;;;24.60;99.90;;;;;;5104793;28;19966;-61
2023/09/12 08:32:45;;;;;;;16.23;9.88;;;24.90;99.90;;;;;;5094684;28;20028;-62
2023/09/12 08:35:12;;;;;;;12.55;8.85;;;25.00;99.90;;;;;;5094510;28;20030;-61
2023/09/12 08:37:39;;;;;;;15.05;9.30;;;25.20;99.90;;;;;;5097162;28;20097;-62
2023/09/12 08:40:08;;;;;;;12.52;8.80;;;25.50;99.90;;;;;;5093601;28;20079;-61
2023/09/12 08:42:42;;;;;;;14.40;8.30;;;25.80;99.90;;;;;;5093649;28;20024;-61
2023/09/12 08:45:18;;;;;;;14.60;8.82;;;26.00;99.90;;;;;;5093575;28;20020;-61
2023/09/12 08:47:44;;;;;;;;;;;26.00;99.90;;;;;;5094275;28;20061;-62
2023/09/12 08:50:16;;;;;;;12.77;8.95;;;27.00;99.90;;;;;;5092353;28;19908;-62
2023/09/12 08:52:43;;;;;;;10.35;7.88;;;27.20;99.90;;;;;;5093615;28;20024;-61
2023/09/12 08:55:10;;;;;;;14.43;8.55;;;27.30;99.90;;;;;;5093320;28;20403;-61
2023/09/12 08:57:41;;;;;;;10.38;8.80;;;27.20;99.90;;;;;;5093987;28;20034;-61
2023/09/12 09:00:13;;;;;;;12.77;8.35;;;27.10;99.90;;;;;;5102677;28;20385;-62
2023/09/12 09:02:42;;;;;;;15.60;8.80;;;27.00;99.90;;;;;;5112129;28;20474;-62
2023/09/12 09:05:11;;;;;;;14.90;8.95;;;27.00;99.90;;;;;;5113451;28;20143;-62
2023/09/12 09:07:40;;;;;;;11.60;8.13;;;27.60;99.90;;;;;;5113361;28;20032;-61
2023/09/12 09:10:13;;;;;;;14.55;9.38;;;28.30;99.90;;;;;;5113491;28;20016;-62
2023/09/12 09:12:40;;;;;;;13.45;8.38;;;29.60;98.40;;;;;;5113521;28;20062;-60
2023/09/12 09:15:26;;;;;;;13.70;8.45;;;29.90;97.50;;;;;;5111834;28;20019;-61
2023/09/12 09:17:52;;;;;;;14.27;9.20;;;30.20;96.50;;;;;;5113352;28;20028;-61
2023/09/12 09:20:34;;;;;;;14.95;7.60;;;30.00;96.40;;;;;;5113340;28;20087;-61
2023/09/12 09:23:05;;;;;;;16.05;8.43;;;30.00;96.30;;;;;;5113251;28;20115;-61
2023/09/12 09:25:33;;;;;;;11.82;8.00;;;29.50;96.80;;;;;;5113342;28;20028;-61
2023/09/12 09:28:04;;;;;;;17.35;7.90;;;30.00;96.40;;;;;;5113199;28;20032;-60
2023/09/12 09:30:47;;;;;;;11.52;7.63;;;31.50;95.10;;;;;;5112997;28;20051;-61
2023/09/12 09:33:13;;;;;;;13.13;7.88;;;31.70;94.20;;;;;;5113409;28;20098;-61
2023/09/12 09:35:41;;;;;;;15.13;10.80;;;30.90;94.40;;;;;;5113182;28;20069;-61
2023/09/12 09:38:08;;;;;;;16.08;9.05;;;30.00;95.20;;;;;;5113519;28;20020;-60
2023/09/12 09:40:35;;;;;;;14.57;8.75;;;29.20;96.30;;;;;;5113319;28;20028;-62
2023/09/12 09:43:03;;;;;;;15.23;8.60;;;28.50;97.10;;;;;;5112934;28;20427;-61
2023/09/12 09:45:29;;;;;;;10.90;8.38;;;28.10;97.50;;;;;;5113012;28;20393;-61
2023/09/12 09:48:19;;;;;;;12.43;8.68;;;27.90;97.50;;;;;;5113725;28;20031;-61
2023/09/12 09:50:44;;;;;;;16.38;8.90;;;28.00;97.40;;;;;;5110238;28;20183;-60
2023/09/12 09:53:10;;;;;;;11.00;8.40;;;28.40;97.00;;;;;;5111634;28;20052;-61
2023/09/12 09:55:36;;;;;;;15.70;9.48;;;29.30;96.10;;;;;;5113542;28;20019;-60
2023/09/12 09:58:05;;;;;;;21.90;8.88;;;29.40;95.70;;;;;;5113503;28;20039;-60
2023/09/12 10:00:36;;;;;;;15.38;9.13;;;29.20;95.60;;;;;;5112634;28;20031;-60
2023/09/12 10:03:06;;;;;;;10.60;8.25;;;28.90;95.80;;;;;;5113296;28;20051;-61
2023/09/12 10:05:32;;;;;;;13.40;8.20;;;28.60;96.30;;;;;;5113291;28;20023;-61
2023/09/12 10:08:02;;;;;;;13.98;11.55;;;28.30;96.50;;;;;;5113464;28;20024;-61
2023/09/12 10:10:29;;;;;;;13.40;8.65;;;28.00;97.00;;;;;;5112507;28;20023;-60
2023/09/12 10:12:57;;;;;;;11.45;8.13;;;27.90;97.40;;;;;;5114197;28;20016;-61
2023/09/12 10:15:28;;;;;;;10.93;8.60;;;28.10;97.10;;;;;;5116803;28;20015;-62
2023/09/12 10:17:58;;;;;;;11.40;8.75;;;28.20;97.20;;;;;;5117058;28;20023;-61
2023/09/12 10:20:37;;;;;;;12.82;8.38;;;28.30;97.20;;;;;;5116830;28;20027;-62
2023/09/12 10:23:11;;;;;;;13.77;9.32;;;28.70;96.90;;;;;;5116861;28;20447;-61
2023/09/12 10:25:38;;;;;;;14.25;10.18;;;28.80;96.50;;;;;;5116760;28;20031;-60
2023/09/12 10:28:06;;;;;;;18.20;11.70;;;29.40;95.90;;;;;;5116749;28;20359;-60
2023/09/12 10:30:32;;;;;;;13.93;9.20;;;30.00;95.30;;;;;;5116095;28;20023;-61
2023/09/12 10:33:01;;;;;;;11.68;7.90;;;31.20;94.40;;;;;;5116656;28;20024;-61
2023/09/12 10:35:27;;;;;;;14.25;8.02;;;33.30;92.60;;;;;;5116580;28;20016;-61
2023/09/12 10:37:55;;;;;;;10.85;7.90;;;35.00;90.60;;;;;;5116277;28;20035;-61
2023/09/12 10:40:21;;;;;;;14.48;7.95;;;36.40;87.80;;;;;;5116392;28;20047;-61
2023/09/12 10:42:47;;;;;;;13.25;7.93;;;37.70;83.90;;;;;;5116355;28;20047;-58
2023/09/12 10:45:13;;;;;;;13.65;8.45;;;38.70;81.00;;;;;;5115916;28;20028;-60
2023/09/12 10:47:39;;;;;;;12.18;7.82;;;38.80;78.10;;;;;;5116318;28;20531;-61
2023/09/12 10:50:06;;;;;;;11.10;8.30;;;37.30;78.60;;;;;;5116032;28;20035;-60
2023/09/12 10:52:34;;;;;;;16.90;7.43;;;36.60;79.60;;;;;;5117815;28;20071;-61
2023/09/12 10:55:04;;;;;;;13.98;8.18;;;36.90;80.20;;;;;;5117624;28;20024;-59
2023/09/12 10:57:30;;;;;;;11.50;7.70;;;37.90;78.80;;;;;;5116406;28;20019;-59
2023/09/12 11:00:04;;;;;;;17.27;8.25;;;38.60;77.10;;;;;;5116038;28;20072;-60
2023/09/12 11:02:34;;;;;;;9.32;7.00;;;38.40;75.50;;;;;;5115584;28;20046;-60
2023/09/12 11:05:06;;;;;;;16.95;8.30;;;37.60;77.00;;;;;;5115350;28;20016;-60
2023/09/12 11:07:38;;;;;;;13.63;8.25;;;36.50;78.00;;;;;;5116018;28;20384;-59
2023/09/12 11:10:15;;;;;;;12.27;7.43;;;35.20;79.70;;;;;;5116052;28;20016;-61
2023/09/12 11:12:42;;;;;;;13.10;7.95;;;33.60;82.10;;;;;;5115971;28;20024;-62
2023/09/12 11:15:10;;;;;;;11.55;8.07;;;32.40;85.30;;;;;;5115439;28;20028;-59
2023/09/12 11:17:39;;;;;;;8.85;7.85;;;31.70;86.10;;;;;;5115629;28;20031;-61
2023/09/12 11:20:12;;;;;;;8.98;7.45;;;31.40;87.20;;;;;;5115978;28;20394;-61
2023/09/12 11:22:39;;;;;;;10.93;8.00;;;31.10;87.90;;;;;;5115209;28;20077;-60
2023/09/12 11:25:17;;;;;;;12.23;7.72;;;30.70;89.20;;;;;;5114768;28;20077;-60
2023/09/12 11:28:04;;;;;;;12.25;7.80;;;30.40;90.00;;;;;;5115636;28;20069;-62
2023/09/12 11:30:30;;;;;;;;;;;30.30;89.40;;;;;;5115887;28;20020;-60
2023/09/12 11:32:56;;;;;;;;;;;30.40;88.00;;;;;;5115923;28;20276;-62
2023/09/12 11:35:24;;;;;;;11.93;7.37;;;30.30;88.20;;;;;;5115210;28;19903;-62
2023/09/12 11:37:55;;;;;;;9.98;7.18;;;30.30;87.60;;;;;;5115252;28;20020;-61
2023/09/12 11:40:43;;;;;;;12.73;6.68;;;30.20;87.80;;;;;;5114329;28;20110;-61
2023/09/12 11:43:21;;;;;;;12.35;7.50;;;30.10;87.10;;;;;;5115284;28;20019;-61
2023/09/12 11:45:47;;;;;;;9.85;7.00;;;30.10;87.50;;;;;;5114848;28;20470;-58
2023/09/12 11:48:12;;;;;;;10.68;6.88;;;30.20;86.20;;;;;;5115185;28;20031;-60
2023/09/12 11:50:40;;;;;;;9.05;6.85;;;30.20;86.90;;;;;;5115444;28;20020;-60
2023/09/12 11:53:10;;;;;;;10.65;6.90;;;30.20;87.10;;;;;;5113667;28;20046;-60
2023/09/12 11:55:41;;;;;;;10.48;6.78;;;30.20;85.30;;;;;;5114677;28;20027;-60
2023/09/12 11:58:07;;;;;;;10.95;6.60;;;30.20;85.40;;;;;;5115312;28;20498;-62
2023/09/12 12:00:33;;;;;;;8.13;6.50;;;30.20;85.80;;;;;;5114570;28;20102;-60
2023/09/12 12:02:58;;;;;;;14.38;6.53;;;30.20;85.40;;;;;;5114456;28;20032;-60
2023/09/12 12:05:24;;;;;;;11.77;6.55;;;30.30;85.70;;;;;;5114729;28;20034;-61
2023/09/12 12:07:50;;;;;;;11.10;6.88;;;30.30;86.30;;;;;;5114855;28;20477;-59
2023/09/12 12:10:17;;;;;;;12.63;6.57;;;30.40;86.40;;;;;;5114869;28;20019;-61
2023/09/12 12:12:45;;;;;;;7.28;6.45;;;30.50;85.70;;;;;;5114929;28;20379;-60
2023/09/12 12:15:12;;;;;;;12.25;6.50;;;30.40;85.50;;;;;;5115373;28;20473;-57
2023/09/12 12:17:40;;;;;;;8.25;6.20;;;30.40;85.70;;;;;;5114144;28;20393;-60
2023/09/12 12:20:09;;;;;;;12.85;6.55;;;30.40;85.10;;;;;;5114214;28;20385;-61
2023/09/12 12:22:39;;;;;;;10.45;6.53;;;30.50;85.40;;;;;;5114317;28;20486;-60
2023/09/12 12:25:08;;;;;;;11.38;7.35;;;30.60;85.60;;;;;;5114683;28;20036;-60
2023/09/12 12:27:38;;;;;;;10.52;6.25;;;30.60;85.10;;;;;;5114413;28;20478;-59
2023/09/12 12:30:08;;;;;;;11.52;6.13;;;30.60;85.40;;;;;;5113008;28;20024;-60
2023/09/12 12:32:34;;;;;;;12.23;6.32;;;30.70;84.60;;;;;;5113896;28;20458;-62
2023/09/12 12:35:02;;;;;;;8.32;5.47;;;30.70;84.10;;;;;;5114058;28;20026;-60
2023/09/12 12:37:30;;;;;;;14.90;6.13;;;30.70;84.20;;;;;;5114268;28;20023;-60
2023/09/12 12:39:56;;;;;;;9.50;5.65;;;30.70;83.30;;;;;;5114606;28;20045;-60